Aviation Digital Data Service (ADDS)

Output produced by METARs form (0517 UTC 25 May 2018)
found at http://www.aviationweather.gov/adds/metars/
 
HEAX 250500Z 36005KT 9999 SCT020 24/19 Q1009 NOSIG
TAF HEAX 250500Z 2506/2612 36008KT 9999 SCT020
       
HEBA 250500Z 00000KT 6000 NSC 23/20 Q1010 NOSIG
TAF HEBA 250500Z 2506/2612 VRB03KT 9999 SCT020 
     BECMG 2506/2508 33010KT
       
HESN 250500Z 04003KT CAVOK 34/01 Q1008 NOSIG
TAF HESN 250500Z 2506/2612 35008KT CAVOK
       
HEAT 250500Z 01014KT CAVOK 29/11 Q1012 NOSIG
TAF HEAT 250500Z 2506/2612 35010KT CAVOK
       
HECA 250500Z 02003KT 9999 FEW025 BKN070 30/10 Q1009 NOSIG
TAF HECA 250500Z 2506/2612 VRB03KT CAVOK 
     TEMPO 2506/2510 6000 NSC 
     BECMG 2510/2512 28008KT
       
TAF HEAR 250500Z 2506/2612 21008KT 9999 SCT025
       
HEGN 250500Z 36008KT CAVOK 30/11 Q1008 NOSIG
TAF HEGN 250500Z 2506/2612 35015KT 9999 SCT025 
     PROB30 
     TEMPO 2508/2512 4000 TSRA FEW020CB BKN025
       
HELX 250500Z 00000KT CAVOK 31/11 Q1008 NOSIG
TAF HELX 250500Z 2506/2612 36006KT CAVOK
       
HEMM 250500Z 32007KT 9999 SCT020 22/18 Q1012 NOSIG
TAF HEMM 250500Z 2506/2612 36010KT 9999 SCT020 SCT022
       
HEPS 250500Z 25003KT CAVOK 23/17 Q1009 NOSIG
TAF HEPS 250500Z 2506/2612 03008KT CAVOK 
     BECMG 2510/2512 01013KT
       
HESH 250500Z 36013KT CAVOK 30/16 Q1008 NOSIG
TAF HESH 250500Z 2506/2612 03016KT 9999 SCT020 
     PROB30 
     TEMPO 2506/2512 4000 TSRA FEW020CB BKN020
       
TAF HETB 250500Z 2506/2612 04015KT 9999 SCT030 
     PROB30 
     TEMPO 2506/2512 4000 TSRA FEW020CB BKN025